createdAt,value
2022-09-04T00:00:40.667Z,14.04
2022-09-04T00:01:44.979Z,14.15
2022-09-04T00:02:40.638Z,14.00
2022-09-04T00:03:40.820Z,13.99
2022-09-04T00:04:40.747Z,13.95
2022-09-04T00:05:40.617Z,14.03
2022-09-04T00:06:40.609Z,13.99
2022-09-04T00:07:40.607Z,13.96
2022-09-04T00:08:40.625Z,13.93
2022-09-04T00:09:40.595Z,13.85
2022-09-04T00:10:40.586Z,13.89
2022-09-04T00:11:40.576Z,13.87
2022-09-04T00:12:40.566Z,13.87
2022-09-04T00:13:40.584Z,13.87
2022-09-04T00:14:40.547Z,13.81
2022-09-04T00:15:40.540Z,13.77
2022-09-04T00:16:40.572Z,13.78
2022-09-04T00:17:40.527Z,13.78
2022-09-04T00:18:40.544Z,13.72
2022-09-04T00:19:40.513Z,13.74
2022-09-04T00:20:40.521Z,13.67
2022-09-04T00:21:40.495Z,13.67
2022-09-04T00:22:40.484Z,13.62
2022-09-04T00:23:40.499Z,13.59
2022-09-04T00:24:40.473Z,13.62
2022-09-04T00:25:40.465Z,13.62
2022-09-04T00:26:40.463Z,13.39
2022-09-04T00:27:40.446Z,13.33
2022-09-04T00:28:40.464Z,13.38
2022-09-04T00:29:40.437Z,13.37
2022-09-04T00:30:40.463Z,13.41
2022-09-04T00:31:40.421Z,13.47
2022-09-04T00:32:40.415Z,13.22
2022-09-04T00:33:40.428Z,13.25
2022-09-04T00:34:40.391Z,13.28
2022-09-04T00:35:40.383Z,13.20
2022-09-04T00:36:40.384Z,13.27
2022-09-04T00:37:40.366Z,13.30
2022-09-04T00:38:40.393Z,13.09
2022-09-04T00:39:40.417Z,13.19
2022-09-04T00:40:40.350Z,13.27
2022-09-04T00:41:40.337Z,13.18
2022-09-04T00:42:40.335Z,13.27
2022-09-04T00:43:40.341Z,13.25
2022-09-04T00:44:40.312Z,13.12
2022-09-04T00:45:40.335Z,13.20
2022-09-04T00:46:40.304Z,13.15
2022-09-04T00:47:40.295Z,13.18
2022-09-04T00:48:40.312Z,13.13
2022-09-04T00:49:40.277Z,13.19
2022-09-04T00:50:40.264Z,13.16
2022-09-04T00:51:40.262Z,13.15
2022-09-04T00:52:40.250Z,13.13
2022-09-04T00:53:40.272Z,13.13
2022-09-04T00:54:40.229Z,13.09
2022-09-04T00:55:40.222Z,13.12
2022-09-04T00:56:40.223Z,13.11
2022-09-04T00:57:40.218Z,13.00
2022-09-04T00:58:40.230Z,12.95
2022-09-04T00:59:40.190Z,13.05
2022-09-04T01:00:40.192Z,13.09
2022-09-04T01:01:40.304Z,13.11
2022-09-04T01:02:40.175Z,13.01
2022-09-04T01:03:40.158Z,13.03
2022-09-04T01:04:40.179Z,13.05
2022-09-04T01:05:40.139Z,13.00
2022-09-04T01:06:40.137Z,12.94
2022-09-04T01:07:40.125Z,12.97
2022-09-04T01:08:40.123Z,12.98
2022-09-04T01:09:40.134Z,12.97
2022-09-04T01:10:40.102Z,12.94
2022-09-04T01:11:40.094Z,12.90
2022-09-04T01:12:40.087Z,12.87
2022-09-04T01:13:40.083Z,12.93
2022-09-04T01:14:40.096Z,12.94
2022-09-04T01:15:40.065Z,12.87
2022-09-04T01:16:40.108Z,12.79
2022-09-04T01:17:40.053Z,12.75
2022-09-04T01:18:40.028Z,12.79
2022-09-04T01:19:40.057Z,12.82
2022-09-04T01:20:40.015Z,12.76
2022-09-04T01:21:40.008Z,12.67
2022-09-04T01:22:40.005Z,12.68
2022-09-04T01:23:40.029Z,12.68
2022-09-04T01:24:39.984Z,12.61
2022-09-04T01:25:39.975Z,12.67
2022-09-04T01:26:39.979Z,12.76
2022-09-04T01:27:39.969Z,12.67
2022-09-04T01:28:39.984Z,12.61
2022-09-04T01:29:39.949Z,12.62
2022-09-04T01:30:39.947Z,12.61
2022-09-04T01:31:39.955Z,12.57
2022-09-04T01:32:39.925Z,12.61
2022-09-04T01:33:39.946Z,12.61
2022-09-04T01:34:39.909Z,12.57
2022-09-04T01:35:39.908Z,12.58
2022-09-04T01:36:39.895Z,12.54
2022-09-04T01:37:39.892Z,12.55
2022-09-04T01:38:39.904Z,12.62
2022-09-04T01:39:39.927Z,12.55
2022-09-04T01:40:39.859Z,12.53
2022-09-04T01:41:39.856Z,12.50
2022-09-04T01:42:39.849Z,12.54
2022-09-04T01:43:39.876Z,12.53
2022-09-04T01:44:39.831Z,12.54
2022-09-04T01:45:39.895Z,12.47
2022-09-04T01:46:39.814Z,12.43
2022-09-04T01:47:39.806Z,12.53
2022-09-04T01:48:39.826Z,12.53
2022-09-04T01:49:40.790Z,12.54
2022-09-04T01:50:39.783Z,12.50
2022-09-04T01:51:39.771Z,12.49
2022-09-04T01:52:39.768Z,12.42
2022-09-04T01:53:39.792Z,12.37
2022-09-04T01:54:39.753Z,12.43
2022-09-04T01:55:39.747Z,12.42
2022-09-04T01:56:39.740Z,12.46
2022-09-04T01:57:39.723Z,12.39
2022-09-04T01:58:39.749Z,12.25
2022-09-04T01:59:39.716Z,12.39
2022-09-04T02:00:39.713Z,12.35
2022-09-04T02:01:39.703Z,12.24
2022-09-04T02:02:39.684Z,12.27
2022-09-04T02:03:39.706Z,12.22
2022-09-04T02:04:39.677Z,12.25
2022-09-04T02:05:39.666Z,12.13
2022-09-04T02:06:39.657Z,12.09
2022-09-04T02:07:39.654Z,12.20
2022-09-04T02:08:39.672Z,12.09
2022-09-04T02:09:39.632Z,12.12
2022-09-04T02:10:39.636Z,12.10
2022-09-04T02:11:39.615Z,12.03
2022-09-04T02:12:39.612Z,11.95
2022-09-04T02:13:39.634Z,12.00
2022-09-04T02:14:39.594Z,12.00
2022-09-04T02:15:39.592Z,12.04
2022-09-04T02:16:39.617Z,11.94
2022-09-04T02:17:39.575Z,11.99
2022-09-04T02:18:39.589Z,11.99
2022-09-04T02:19:40.561Z,11.97
2022-09-04T02:20:39.549Z,11.95
2022-09-04T02:21:39.538Z,11.88
2022-09-04T02:22:39.535Z,11.87
2022-09-04T02:23:39.555Z,12.02
2022-09-04T02:24:39.525Z,11.90
2022-09-04T02:25:39.512Z,11.87
2022-09-04T02:26:39.501Z,11.81
2022-09-04T02:27:39.496Z,11.87
2022-09-04T02:28:39.521Z,11.83
2022-09-04T02:29:39.480Z,11.86
2022-09-04T02:30:39.469Z,11.86
2022-09-04T02:31:39.496Z,11.83
2022-09-04T02:32:39.462Z,11.94
2022-09-04T02:33:39.474Z,11.95
2022-09-04T02:34:39.447Z,11.88
2022-09-04T02:35:39.428Z,11.90
2022-09-04T02:36:39.428Z,11.86
2022-09-04T02:37:39.432Z,11.80
2022-09-04T02:38:39.442Z,11.86
2022-09-04T02:39:39.454Z,11.72
2022-09-04T02:40:39.396Z,11.68
2022-09-04T02:41:39.394Z,11.75
2022-09-04T02:42:39.384Z,11.75
2022-09-04T02:43:39.372Z,11.69
2022-09-04T02:44:39.395Z,11.69
2022-09-04T02:45:39.358Z,11.66
2022-09-04T02:46:43.136Z,11.66
2022-09-04T02:47:40.344Z,11.62
2022-09-04T02:48:39.334Z,11.65
2022-09-04T02:49:39.361Z,11.60
2022-09-04T02:50:39.320Z,11.54
2022-09-04T02:51:39.314Z,11.62
2022-09-04T02:52:39.312Z,11.55
2022-09-04T02:53:39.294Z,11.51
2022-09-04T02:54:39.311Z,11.57
2022-09-04T02:55:39.286Z,11.57
2022-09-04T02:56:39.279Z,11.45
2022-09-04T02:57:39.249Z,11.54
2022-09-04T02:58:40.264Z,11.51
2022-09-04T02:59:39.291Z,11.50
2022-09-04T03:00:39.319Z,11.41
2022-09-04T03:01:39.291Z,11.41
2022-09-04T03:02:39.229Z,11.48
2022-09-04T03:03:39.233Z,11.52
2022-09-04T03:04:39.240Z,11.44
2022-09-04T03:05:39.215Z,11.57
2022-09-04T03:06:39.200Z,11.44
2022-09-04T03:07:39.194Z,11.43
2022-09-04T03:08:39.190Z,11.45
2022-09-04T03:09:39.199Z,11.36
2022-09-04T03:10:39.168Z,11.41
2022-09-04T03:11:39.158Z,11.41
2022-09-04T03:12:39.156Z,11.51
2022-09-04T03:13:39.150Z,11.40
2022-09-04T03:14:39.164Z,11.52
2022-09-04T03:15:39.132Z,11.44
2022-09-04T03:16:39.168Z,11.45
2022-09-04T03:17:39.118Z,11.40
2022-09-04T03:18:39.108Z,11.40
2022-09-04T03:19:39.131Z,11.47
2022-09-04T03:20:39.093Z,11.37
2022-09-04T03:21:39.077Z,11.41
2022-09-04T03:22:39.081Z,11.40
2022-09-04T03:23:39.063Z,11.37
2022-09-04T03:24:39.091Z,11.30
2022-09-04T03:25:39.053Z,11.40
2022-09-04T03:26:39.043Z,11.32
2022-09-04T03:27:39.037Z,11.40
2022-09-04T03:28:39.029Z,11.30
2022-09-04T03:29:39.047Z,11.29
2022-09-04T03:30:39.019Z,11.25
2022-09-04T03:31:39.065Z,11.36
2022-09-04T03:32:38.996Z,11.23
2022-09-04T03:33:40.092Z,11.23
2022-09-04T03:34:39.013Z,11.18
2022-09-04T03:35:38.972Z,11.27
2022-09-04T03:36:38.968Z,11.27
2022-09-04T03:37:38.960Z,11.12
2022-09-04T03:38:38.951Z,11.15
2022-09-04T03:39:38.979Z,11.19
2022-09-04T03:40:38.956Z,11.17
2022-09-04T03:41:38.921Z,11.15
2022-09-04T03:42:38.915Z,11.26
2022-09-04T03:43:38.905Z,11.25
2022-09-04T03:44:38.898Z,11.23
2022-09-04T03:45:38.918Z,11.17
2022-09-04T03:46:39.104Z,11.25
2022-09-04T03:47:38.869Z,11.30
2022-09-04T03:48:38.866Z,11.26
2022-09-04T03:49:38.854Z,11.33
2022-09-04T03:50:38.878Z,11.27
2022-09-04T03:51:38.843Z,11.37
2022-09-04T03:52:38.833Z,11.41
2022-09-04T03:53:38.827Z,11.25
2022-09-04T03:54:38.819Z,11.29
2022-09-04T03:55:38.834Z,11.30
2022-09-04T03:56:38.803Z,11.43
2022-09-04T03:57:38.812Z,11.26
2022-09-04T03:58:38.789Z,11.19
2022-09-04T03:59:38.772Z,11.26
2022-09-04T04:00:39.845Z,11.18
2022-09-04T04:01:38.769Z,11.08
2022-09-04T04:02:38.812Z,11.23
2022-09-04T04:03:38.749Z,11.05
2022-09-04T04:04:38.738Z,11.10
2022-09-04T04:05:38.761Z,11.07
2022-09-04T04:06:38.722Z,11.07
2022-09-04T04:07:38.713Z,11.10
2022-09-04T04:08:38.710Z,11.07
2022-09-04T04:09:38.699Z,11.04
2022-09-04T04:10:38.719Z,11.12
2022-09-04T04:11:43.268Z,11.10
2022-09-04T04:12:39.672Z,11.07
2022-09-04T04:13:38.668Z,11.14
2022-09-04T04:14:38.658Z,11.11
2022-09-04T04:15:38.683Z,11.08
2022-09-04T04:16:38.711Z,11.07
2022-09-04T04:17:38.634Z,11.17
2022-09-04T04:18:38.620Z,11.08
2022-09-04T04:19:38.619Z,11.08
2022-09-04T04:20:38.637Z,11.02
2022-09-04T04:21:38.605Z,11.11
2022-09-04T04:22:38.598Z,11.12
2022-09-04T04:23:38.586Z,11.04
2022-09-04T04:24:38.582Z,11.04
2022-09-04T04:25:38.600Z,11.07
2022-09-04T04:26:38.561Z,11.10
2022-09-04T04:27:38.558Z,11.18
2022-09-04T04:28:38.555Z,11.14
2022-09-04T04:29:38.541Z,11.12
2022-09-04T04:30:38.533Z,11.14
2022-09-04T04:31:38.575Z,11.00
2022-09-04T04:32:38.521Z,11.04
2022-09-04T04:33:38.509Z,11.10
2022-09-04T04:34:38.503Z,10.99
2022-09-04T04:35:38.492Z,11.10
2022-09-04T04:36:38.506Z,10.99
2022-09-04T04:37:38.478Z,10.96
2022-09-04T04:38:38.463Z,10.90
2022-09-04T04:39:38.485Z,10.92
2022-09-04T04:40:38.448Z,10.90
2022-09-04T04:41:38.466Z,10.93
2022-09-04T04:42:38.436Z,10.96
2022-09-04T04:43:38.427Z,10.90
2022-09-04T04:44:38.417Z,10.89
2022-09-04T04:45:38.433Z,10.90
2022-09-04T04:46:38.431Z,10.90
2022-09-04T04:47:39.394Z,10.96
2022-09-04T04:48:38.390Z,10.93
2022-09-04T04:49:38.379Z,10.87
2022-09-04T04:50:38.395Z,10.90
2022-09-04T04:51:38.363Z,10.90
2022-09-04T04:52:38.357Z,10.97
2022-09-04T04:53:38.346Z,10.99
2022-09-04T04:54:38.337Z,10.93
2022-09-04T04:55:38.356Z,11.05
2022-09-04T04:56:38.320Z,11.07
2022-09-04T04:57:38.314Z,11.00
2022-09-04T04:58:38.309Z,10.94
2022-09-04T04:59:38.299Z,11.10
2022-09-04T05:00:38.328Z,11.07
2022-09-04T05:01:38.353Z,11.08
2022-09-04T05:02:38.362Z,11.29
2022-09-04T05:03:38.265Z,11.55
2022-09-04T05:04:38.264Z,11.78
2022-09-04T05:05:38.304Z,12.12
2022-09-04T05:06:38.244Z,12.35
2022-09-04T05:07:38.233Z,12.62
2022-09-04T05:08:38.224Z,12.97
2022-09-04T05:09:38.216Z,13.37
2022-09-04T05:10:38.212Z,13.67
2022-09-04T05:11:38.230Z,14.07
2022-09-04T05:12:38.197Z,14.44
2022-09-04T05:13:38.177Z,14.85
2022-09-04T05:14:39.179Z,15.28
2022-09-04T05:15:58.209Z,15.76
2022-09-04T05:16:40.236Z,16.15
2022-09-04T05:17:38.159Z,16.36
2022-09-04T05:18:38.151Z,16.46
2022-09-04T05:19:38.146Z,16.74
2022-09-04T05:20:38.134Z,16.68
2022-09-04T05:21:38.156Z,16.93
2022-09-04T05:22:38.120Z,17.02
2022-09-04T05:23:38.114Z,17.29
2022-09-04T05:24:38.107Z,17.34
2022-09-04T05:25:38.096Z,17.65
2022-09-04T05:26:38.121Z,17.92
2022-09-04T05:27:38.081Z,18.08
2022-09-04T05:28:38.074Z,18.38
2022-09-04T05:29:38.066Z,18.47
2022-09-04T05:30:38.057Z,18.65
2022-09-04T05:31:38.245Z,18.80
2022-09-04T05:32:38.043Z,18.92
2022-09-04T05:33:38.035Z,19.07
2022-09-04T05:34:38.026Z,19.39
2022-09-04T05:35:38.023Z,19.41
2022-09-04T05:36:38.047Z,19.64
2022-09-04T05:37:37.999Z,19.71
2022-09-04T05:38:37.994Z,20.00
2022-09-04T05:39:38.025Z,20.31
2022-09-04T05:40:37.977Z,20.34
2022-09-04T05:41:37.993Z,20.52
2022-09-04T05:42:37.962Z,20.59
2022-09-04T05:43:37.956Z,20.62
2022-09-04T05:44:37.944Z,20.84
2022-09-04T05:45:37.939Z,21.02
2022-09-04T05:46:38.002Z,21.15
2022-09-04T05:47:37.924Z,21.39
2022-09-04T05:48:37.915Z,21.55
2022-09-04T05:49:37.906Z,21.69
2022-09-04T05:50:37.899Z,21.45
2022-09-04T05:51:37.917Z,21.64
2022-09-04T05:52:37.884Z,21.80
2022-09-04T05:53:37.878Z,21.99
2022-09-04T05:54:37.867Z,22.04
2022-09-04T05:55:37.859Z,22.17
2022-09-04T05:56:37.885Z,22.30
2022-09-04T05:57:37.843Z,22.44
2022-09-04T05:58:37.841Z,22.54
2022-09-04T05:59:37.828Z,22.80
2022-09-04T06:00:37.827Z,23.06
2022-09-04T06:01:37.868Z,23.36
2022-09-04T06:02:37.869Z,23.48
2022-09-04T06:03:37.800Z,23.55
2022-09-04T06:04:37.797Z,23.63
2022-09-04T06:05:37.767Z,23.63
2022-09-04T06:06:38.805Z,23.66
2022-09-04T06:07:37.766Z,23.86
2022-09-04T06:08:37.765Z,23.93
2022-09-04T06:09:37.765Z,24.06
2022-09-04T06:10:37.749Z,24.18
2022-09-04T06:11:37.743Z,24.54
2022-09-04T06:12:37.763Z,24.95
2022-09-04T06:13:37.730Z,25.14
2022-09-04T06:14:37.721Z,25.40
2022-09-04T06:15:37.761Z,25.47
2022-09-04T06:16:37.734Z,25.54
2022-09-04T06:17:37.699Z,25.77
2022-09-04T06:18:37.697Z,25.88
2022-09-04T06:19:37.683Z,25.81
2022-09-04T06:20:37.677Z,25.68
2022-09-04T06:21:37.698Z,25.69
2022-09-04T06:22:37.665Z,25.81
2022-09-04T06:23:37.658Z,25.91
2022-09-04T06:24:37.651Z,26.18
2022-09-04T06:25:37.640Z,26.03
2022-09-04T06:26:37.659Z,26.10
2022-09-04T06:27:37.633Z,26.22
2022-09-04T06:28:37.621Z,26.28
2022-09-04T06:29:37.617Z,26.36
2022-09-04T06:30:37.612Z,26.52
2022-09-04T06:31:37.677Z,26.96
2022-09-04T06:32:37.596Z,26.59
2022-09-04T06:33:37.592Z,26.68
2022-09-04T06:34:37.585Z,26.75
2022-09-04T06:35:37.579Z,26.77
2022-09-04T06:36:37.596Z,26.60
2022-09-04T06:37:37.566Z,26.68
2022-09-04T06:38:37.565Z,26.85
2022-09-04T06:39:37.570Z,27.29
2022-09-04T06:40:37.543Z,27.68
2022-09-04T06:41:37.563Z,27.83
2022-09-04T06:42:37.530Z,27.96
2022-09-04T06:43:37.960Z,27.68
2022-09-04T06:44:37.515Z,27.40
2022-09-04T06:45:37.512Z,27.35
2022-09-04T06:46:37.527Z,27.14
2022-09-04T06:47:37.519Z,27.07
2022-09-04T06:48:37.492Z,27.11
2022-09-04T06:49:37.482Z,27.30
2022-09-04T06:50:37.473Z,27.44
2022-09-04T06:51:37.495Z,27.68
2022-09-04T06:52:37.460Z,27.82
2022-09-04T06:53:37.453Z,27.64
2022-09-04T06:54:37.445Z,27.55
2022-09-04T06:55:37.442Z,27.32
2022-09-04T06:56:37.461Z,27.75
2022-09-04T06:57:37.428Z,28.07
2022-09-04T06:58:37.421Z,28.33
2022-09-04T06:59:37.418Z,28.33
2022-09-04T07:00:37.411Z,28.27
2022-09-04T07:01:37.528Z,28.38
2022-09-04T07:02:37.532Z,28.56
2022-09-04T07:03:37.388Z,28.64
2022-09-04T07:04:37.377Z,28.48
2022-09-04T07:05:37.374Z,28.51
2022-09-04T07:06:37.396Z,28.63
2022-09-04T07:07:37.363Z,28.75
2022-09-04T07:08:37.356Z,28.63
2022-09-04T07:09:37.350Z,28.70
2022-09-04T07:10:37.346Z,28.72
2022-09-04T07:11:37.362Z,28.75
2022-09-04T07:12:37.332Z,28.60
2022-09-04T07:13:37.323Z,28.86
2022-09-04T07:14:37.317Z,29.08
2022-09-04T07:15:37.360Z,28.89
2022-09-04T07:16:37.329Z,28.79
2022-09-04T07:17:37.304Z,29.10
2022-09-04T07:18:37.291Z,28.89
2022-09-04T07:19:37.284Z,28.79
2022-09-04T07:20:37.278Z,28.64
2022-09-04T07:21:37.295Z,28.69
2022-09-04T07:22:37.267Z,28.51
2022-09-04T07:23:37.261Z,28.59
2022-09-04T07:24:37.256Z,28.72
2022-09-04T07:25:37.249Z,29.01
2022-09-04T07:26:37.268Z,29.31
2022-09-04T07:27:37.238Z,29.63
2022-09-04T07:28:37.230Z,29.79
2022-09-04T07:29:37.221Z,29.53
2022-09-04T07:30:37.221Z,29.17
2022-09-04T07:31:37.257Z,29.41
2022-09-04T07:32:37.207Z,29.42
2022-09-04T07:33:37.203Z,29.31
2022-09-04T07:34:37.196Z,29.54
2022-09-04T07:35:37.187Z,29.75
2022-09-04T07:36:37.213Z,29.73
2022-09-04T07:37:37.178Z,29.82
2022-09-04T07:38:37.169Z,29.69
2022-09-04T07:39:37.221Z,29.82
2022-09-04T07:40:38.209Z,30.00
2022-09-04T07:41:37.184Z,30.15
2022-09-04T07:42:37.144Z,30.03
2022-09-04T07:43:37.139Z,30.21
2022-09-04T07:44:37.131Z,30.32
2022-09-04T07:45:37.125Z,30.44
2022-09-04T07:46:37.153Z,30.46
2022-09-04T07:47:37.137Z,30.55
2022-09-04T07:48:37.110Z,30.61
2022-09-04T07:49:37.101Z,30.66
2022-09-04T07:50:37.098Z,30.78
2022-09-04T07:51:37.089Z,30.80
2022-09-04T07:52:37.110Z,30.87
2022-09-04T07:53:37.076Z,31.36
2022-09-04T07:54:37.070Z,31.84
2022-09-04T07:55:37.065Z,32.08
2022-09-04T07:56:37.062Z,31.76
2022-09-04T07:57:37.081Z,31.59
2022-09-04T07:58:37.046Z,31.49
2022-09-04T07:59:37.039Z,31.36
2022-09-04T08:00:37.027Z,31.28
2022-09-04T08:01:40.385Z,31.06
2022-09-04T08:02:38.064Z,31.22
2022-09-04T08:03:37.024Z,31.20
2022-09-04T08:04:38.057Z,31.18
2022-09-04T08:05:37.010Z,30.85
2022-09-04T08:06:37.005Z,30.48
2022-09-04T08:07:37.020Z,30.53
2022-09-04T08:08:36.998Z,30.34
2022-09-04T08:09:36.987Z,30.18
2022-09-04T08:10:36.978Z,30.03
2022-09-04T08:11:36.973Z,30.32
2022-09-04T08:12:36.992Z,30.59
2022-09-04T08:13:36.962Z,30.77
2022-09-04T08:14:36.954Z,30.85
2022-09-04T08:15:40.982Z,31.28
2022-09-04T08:16:37.945Z,31.37
2022-09-04T08:17:36.961Z,31.61
2022-09-04T08:18:36.932Z,31.69
2022-09-04T08:19:36.926Z,31.74
2022-09-04T08:20:36.933Z,31.84
2022-09-04T08:21:36.913Z,31.66
2022-09-04T08:22:36.936Z,31.65
2022-09-04T08:23:36.901Z,31.66
2022-09-04T08:24:36.896Z,31.31
2022-09-04T08:25:36.890Z,31.31
2022-09-04T08:26:36.882Z,31.42
2022-09-04T08:27:40.463Z,31.52
2022-09-04T08:28:37.872Z,31.55
2022-09-04T08:29:36.866Z,31.64
2022-09-04T08:30:36.883Z,31.99
2022-09-04T08:31:36.850Z,31.99
2022-09-04T08:32:38.227Z,31.90
2022-09-04T08:33:36.841Z,31.81
2022-09-04T08:34:36.828Z,32.04
2022-09-04T08:35:36.827Z,31.78
2022-09-04T08:36:36.827Z,31.61
2022-09-04T08:37:36.844Z,31.47
2022-09-04T08:38:36.812Z,31.34
2022-09-04T08:39:36.857Z,31.09
2022-09-04T08:40:36.804Z,31.12
2022-09-04T08:41:36.790Z,31.03
2022-09-04T08:42:36.816Z,31.06
2022-09-04T08:43:36.782Z,31.12
2022-09-04T08:44:36.776Z,31.07
2022-09-04T08:45:42.663Z,31.15
2022-09-04T08:46:37.840Z,31.40
2022-09-04T08:47:36.784Z,31.61
2022-09-04T08:48:36.750Z,31.66
2022-09-04T08:49:36.745Z,31.76
2022-09-04T08:50:36.740Z,32.14
2022-09-04T08:51:36.738Z,32.18
2022-09-04T08:52:36.755Z,32.09
2022-09-04T08:53:36.711Z,32.31
2022-09-04T08:54:37.720Z,32.14
2022-09-04T08:55:36.697Z,32.01
2022-09-04T08:56:37.703Z,31.73
2022-09-04T08:57:36.728Z,31.65
2022-09-04T08:58:36.696Z,31.54
2022-09-04T08:59:36.689Z,31.51
2022-09-04T09:00:36.681Z,31.42
2022-09-04T09:01:36.748Z,31.20
2022-09-04T09:02:36.725Z,31.10
2022-09-04T09:03:36.658Z,31.03
2022-09-04T09:04:36.654Z,31.12
2022-09-04T09:05:36.649Z,31.14
2022-09-04T09:06:36.643Z,31.22
2022-09-04T09:07:36.668Z,31.33
2022-09-04T09:08:36.632Z,31.39
2022-09-04T09:09:36.632Z,31.33
2022-09-04T09:10:36.623Z,31.15
2022-09-04T09:11:36.616Z,31.14
2022-09-04T09:12:41.485Z,31.15
2022-09-04T09:13:37.604Z,31.14
2022-09-04T09:14:36.599Z,31.25
2022-09-04T09:15:36.590Z,31.27
2022-09-04T09:16:36.639Z,31.12
2022-09-04T09:17:36.586Z,31.12
2022-09-04T09:18:36.604Z,31.06
2022-09-04T09:19:36.573Z,30.97
2022-09-04T09:20:36.559Z,30.91
2022-09-04T09:21:36.559Z,30.85
2022-09-04T09:22:36.552Z,30.91
2022-09-04T09:23:36.574Z,30.77
2022-09-04T09:24:36.536Z,30.94
2022-09-04T09:25:38.963Z,31.09
2022-09-04T09:26:36.523Z,31.09
2022-09-04T09:27:36.518Z,30.83
2022-09-04T09:28:36.539Z,30.25
2022-09-04T09:29:36.504Z,30.30
2022-09-04T09:30:36.535Z,30.63
2022-09-04T09:31:36.493Z,30.84
2022-09-04T09:32:36.484Z,30.72
2022-09-04T09:33:36.509Z,30.81
2022-09-04T09:34:36.473Z,30.92
2022-09-04T09:35:36.475Z,30.75
2022-09-04T09:36:36.466Z,30.65
2022-09-04T09:37:36.484Z,30.43
2022-09-04T09:38:36.453Z,30.48
2022-09-04T09:39:36.485Z,30.44
2022-09-04T09:40:36.445Z,30.34
2022-09-04T09:41:36.432Z,30.24
2022-09-04T09:42:36.451Z,30.43
2022-09-04T09:43:36.421Z,30.61
2022-09-04T09:44:36.421Z,30.53
2022-09-04T09:45:36.490Z,30.61
2022-09-04T09:46:36.402Z,30.40
2022-09-04T09:47:36.417Z,30.18
2022-09-04T09:48:36.389Z,30.24
2022-09-04T09:49:36.384Z,30.25
2022-09-04T09:50:36.371Z,30.24
2022-09-04T09:51:37.061Z,30.02
2022-09-04T09:52:36.383Z,29.76
2022-09-04T09:53:36.355Z,29.69
2022-09-04T09:54:36.357Z,29.66
2022-09-04T09:55:36.337Z,29.63
2022-09-04T09:56:36.334Z,29.60
2022-09-04T09:57:36.353Z,29.29
2022-09-04T09:58:36.319Z,29.10
2022-09-04T09:59:36.321Z,29.01
2022-09-04T10:00:36.302Z,28.91
2022-09-04T10:01:36.359Z,28.94
2022-09-04T10:02:36.384Z,28.94
2022-09-04T10:03:36.283Z,28.91
2022-09-04T10:04:36.284Z,28.72
2022-09-04T10:05:36.271Z,28.52
2022-09-04T10:06:36.269Z,28.45
2022-09-04T10:07:36.280Z,28.67
2022-09-04T10:08:36.541Z,28.64
2022-09-04T10:09:36.239Z,28.62
2022-09-04T10:10:36.232Z,28.54
2022-09-04T10:11:36.229Z,28.64
2022-09-04T10:12:36.243Z,28.96
2022-09-04T10:13:36.224Z,28.89
2022-09-04T10:14:36.209Z,28.89
2022-09-04T10:15:36.203Z,28.94
2022-09-04T10:16:36.254Z,28.98
2022-09-04T10:17:36.208Z,29.02
2022-09-04T10:18:36.184Z,29.14
2022-09-04T10:19:39.028Z,29.23
2022-09-04T10:20:37.161Z,29.12
2022-09-04T10:21:36.149Z,29.17
2022-09-04T10:22:36.175Z,29.05
2022-09-04T10:23:36.149Z,29.10
2022-09-04T10:24:36.141Z,29.10
2022-09-04T10:25:36.122Z,29.14
2022-09-04T10:26:36.116Z,29.05
2022-09-04T10:27:38.584Z,29.13
2022-09-04T10:28:37.106Z,29.10
2022-09-04T10:29:36.093Z,29.14
2022-09-04T10:30:36.123Z,29.23
2022-09-04T10:31:36.076Z,29.27
2022-09-04T10:32:36.098Z,29.34
2022-09-04T10:33:36.062Z,29.22
2022-09-04T10:34:36.052Z,29.29
2022-09-04T10:35:36.046Z,29.17
2022-09-04T10:36:36.045Z,29.07
2022-09-04T10:37:36.062Z,29.12
2022-09-04T10:38:36.025Z,28.94
2022-09-04T10:39:36.078Z,29.14
2022-09-04T10:40:39.630Z,29.31
2022-09-04T10:41:37.006Z,29.42
2022-09-04T10:42:36.035Z,29.50
2022-09-04T10:43:35.992Z,29.54
2022-09-04T10:44:35.984Z,29.60
2022-09-04T10:45:36.021Z,29.36
2022-09-04T10:46:35.971Z,29.08
2022-09-04T10:47:35.991Z,28.94
2022-09-04T10:48:35.963Z,28.84
2022-09-04T10:49:35.950Z,28.94
2022-09-04T10:50:35.944Z,28.91
2022-09-04T10:51:35.941Z,29.12
2022-09-04T10:52:35.960Z,29.07
2022-09-04T10:53:35.905Z,29.14
2022-09-04T10:54:36.918Z,29.34
2022-09-04T10:55:35.904Z,29.53
2022-09-04T10:56:35.899Z,29.66
2022-09-04T10:57:35.925Z,29.60
2022-09-04T10:58:35.885Z,29.54
2022-09-04T10:59:35.909Z,29.53
2022-09-04T11:00:35.872Z,29.45
2022-09-04T11:01:35.928Z,29.42
2022-09-04T11:02:35.917Z,29.42
2022-09-04T11:03:36.851Z,29.42
2022-09-04T11:04:35.833Z,29.57
2022-09-04T11:05:35.829Z,29.56
2022-09-04T11:06:35.829Z,29.59
2022-09-04T11:07:35.841Z,29.65
2022-09-04T11:08:35.810Z,29.61
2022-09-04T11:09:35.810Z,29.56
2022-09-04T11:10:35.818Z,29.49
2022-09-04T11:11:35.783Z,29.31
2022-09-04T11:12:35.828Z,29.17
2022-09-04T11:13:35.781Z,29.24
2022-09-04T11:14:35.766Z,29.44
2022-09-04T11:15:35.764Z,29.63
2022-09-04T11:16:35.808Z,29.53
2022-09-04T11:17:35.775Z,29.56
2022-09-04T11:18:35.737Z,29.75
2022-09-04T11:19:35.733Z,29.73
2022-09-04T11:20:35.722Z,29.88
2022-09-04T11:21:35.711Z,30.09
2022-09-04T11:22:35.739Z,30.10
2022-09-04T11:23:35.707Z,30.09
2022-09-04T11:24:35.687Z,29.94
2022-09-04T11:25:35.718Z,30.08
2022-09-04T11:26:35.671Z,29.95
2022-09-04T11:27:35.692Z,29.76
2022-09-04T11:28:35.659Z,29.71
2022-09-04T11:29:35.648Z,29.76
2022-09-04T11:30:35.648Z,29.81
2022-09-04T11:31:35.688Z,29.84
2022-09-04T11:32:35.659Z,29.86
2022-09-04T11:33:35.623Z,29.79
2022-09-04T11:34:35.611Z,29.75
2022-09-04T11:35:35.603Z,29.86
2022-09-04T11:36:35.595Z,29.61
2022-09-04T11:37:35.620Z,29.71
2022-09-04T11:38:35.594Z,29.72
2022-09-04T11:39:35.653Z,29.59
2022-09-04T11:40:35.573Z,29.49
2022-09-04T11:41:35.566Z,29.59
2022-09-04T11:42:35.582Z,29.68
2022-09-04T11:43:35.550Z,29.69
2022-09-04T11:44:35.544Z,29.71
2022-09-04T11:45:35.608Z,29.84
2022-09-04T11:46:35.531Z,29.93
2022-09-04T11:47:35.553Z,29.94
2022-09-04T11:48:35.520Z,29.84
2022-09-04T11:49:35.503Z,29.84
2022-09-04T11:50:35.504Z,29.75
2022-09-04T11:51:35.491Z,29.78
2022-09-04T11:52:35.515Z,29.60
2022-09-04T11:53:35.484Z,29.22
2022-09-04T11:54:35.471Z,29.04
2022-09-04T11:55:35.468Z,28.94
2022-09-04T11:56:35.460Z,29.10
2022-09-04T11:57:35.484Z,29.19
2022-09-04T11:58:35.438Z,29.31
2022-09-04T11:59:35.427Z,29.47
2022-09-04T12:00:35.425Z,29.59
2022-09-04T12:01:35.419Z,29.26
2022-09-04T12:02:35.438Z,29.24
2022-09-04T12:03:35.476Z,29.31
2022-09-04T12:04:35.399Z,29.44
2022-09-04T12:05:35.391Z,29.14
2022-09-04T12:06:35.379Z,28.84
2022-09-04T12:07:42.909Z,28.74
2022-09-04T12:08:37.392Z,28.78
2022-09-04T12:09:35.358Z,29.04
2022-09-04T12:10:35.356Z,29.19
2022-09-04T12:11:35.350Z,29.22
2022-09-04T12:12:35.344Z,29.24
2022-09-04T12:13:35.356Z,29.36
2022-09-04T12:14:35.322Z,29.69
2022-09-04T12:15:35.322Z,29.71
2022-09-04T12:16:35.365Z,29.76
2022-09-04T12:17:35.301Z,29.72
2022-09-04T12:18:35.325Z,29.76
2022-09-04T12:19:35.293Z,29.82
2022-09-04T12:20:35.281Z,29.94
2022-09-04T12:21:35.272Z,29.95
2022-09-04T12:22:35.263Z,29.95
2022-09-04T12:23:35.284Z,30.05
2022-09-04T12:24:35.250Z,30.06
2022-09-04T12:25:35.257Z,29.84
2022-09-04T12:26:35.244Z,29.78
2022-09-04T12:27:35.244Z,29.97
2022-09-04T12:28:35.253Z,30.12
2022-09-04T12:29:35.222Z,30.27
2022-09-04T12:30:35.206Z,30.25
2022-09-04T12:31:35.245Z,30.39
2022-09-04T12:32:35.194Z,30.30
2022-09-04T12:33:35.214Z,30.27
2022-09-04T12:34:35.180Z,30.02
2022-09-04T12:35:35.170Z,30.28
2022-09-04T12:36:35.163Z,30.28
2022-09-04T12:37:35.159Z,30.40
2022-09-04T12:38:35.173Z,30.25
2022-09-04T12:39:35.165Z,30.13
2022-09-04T12:40:35.132Z,30.21
2022-09-04T12:41:35.132Z,30.08
2022-09-04T12:42:35.121Z,29.84
2022-09-04T12:43:36.916Z,29.86
2022-09-04T12:44:35.105Z,29.78
2022-09-04T12:45:35.136Z,29.93
2022-09-04T12:46:35.091Z,29.82
2022-09-04T12:47:35.083Z,29.75
2022-09-04T12:48:35.104Z,29.78
2022-09-04T12:49:35.605Z,29.87
2022-09-04T12:50:35.062Z,29.87
2022-09-04T12:51:35.056Z,29.90
2022-09-04T12:52:35.051Z,29.81